sensor_id;sensor_type;location;lat;lon;timestamp;P1;durP1;ratioP1;P2;durP2;ratioP2
64063;SDS011;50314;50.618;10.642;2023-04-03T00:01:11;1.30;;;1.05;;
64063;SDS011;50314;50.618;10.642;2023-04-03T00:03:36;1.48;;;1.10;;
64063;SDS011;50314;50.618;10.642;2023-04-03T00:06:02;1.17;;;1.08;;
64063;SDS011;50314;50.618;10.642;2023-04-03T00:08:30;1.35;;;0.90;;
64063;SDS011;50314;50.618;10.642;2023-04-03T00:10:57;2.00;;;1.08;;
64063;SDS011;50314;50.618;10.642;2023-04-03T00:13:23;1.38;;;1.20;;
64063;SDS011;50314;50.618;10.642;2023-04-03T00:15:50;1.25;;;1.15;;
64063;SDS011;50314;50.618;10.642;2023-04-03T00:18:16;1.25;;;1.00;;
64063;SDS011;50314;50.618;10.642;2023-04-03T00:20:41;1.25;;;1.10;;
64063;SDS011;50314;50.618;10.642;2023-04-03T00:23:07;1.10;;;0.88;;
64063;SDS011;50314;50.618;10.642;2023-04-03T00:25:32;1.40;;;1.00;;
64063;SDS011;50314;50.618;10.642;2023-04-03T00:27:58;1.15;;;1.00;;
64063;SDS011;50314;50.618;10.642;2023-04-03T00:30:24;0.95;;;0.90;;
64063;SDS011;50314;50.618;10.642;2023-04-03T00:32:51;1.10;;;0.88;;
64063;SDS011;50314;50.618;10.642;2023-04-03T00:35:17;1.23;;;1.10;;
64063;SDS011;50314;50.618;10.642;2023-04-03T00:37:44;1.30;;;1.20;;
64063;SDS011;50314;50.618;10.642;2023-04-03T00:40:10;1.35;;;1.10;;
64063;SDS011;50314;50.618;10.642;2023-04-03T00:42:39;1.10;;;1.10;;
64063;SDS011;50314;50.618;10.642;2023-04-03T00:45:26;1.15;;;1.05;;
64063;SDS011;50314;50.618;10.642;2023-04-03T00:47:56;1.52;;;1.23;;
64063;SDS011;50314;50.618;10.642;2023-04-03T00:50:24;1.42;;;1.00;;
64063;SDS011;50314;50.618;10.642;2023-04-03T00:52:51;1.73;;;1.10;;
64063;SDS011;50314;50.618;10.642;2023-04-03T00:55:17;1.13;;;0.93;;
64063;SDS011;50314;50.618;10.642;2023-04-03T00:57:43;1.10;;;1.00;;
64063;SDS011;50314;50.618;10.642;2023-04-03T01:02:37;1.05;;;0.95;;
64063;SDS011;50314;50.618;10.642;2023-04-03T01:05:05;1.10;;;1.00;;
64063;SDS011;50314;50.618;10.642;2023-04-03T01:07:31;1.10;;;1.00;;
64063;SDS011;50314;50.618;10.642;2023-04-03T01:10:00;0.98;;;0.90;;
64063;SDS011;50314;50.618;10.642;2023-04-03T01:12:32;1.05;;;0.95;;
64063;SDS011;50314;50.618;10.642;2023-04-03T01:15:07;0.95;;;0.93;;
64063;SDS011;50314;50.618;10.642;2023-04-03T01:20:17;1.65;;;1.15;;
64063;SDS011;50314;50.618;10.642;2023-04-03T01:25:42;1.00;;;0.95;;
64063;SDS011;50314;50.618;10.642;2023-04-03T01:28:11;1.15;;;1.05;;
64063;SDS011;50314;50.618;10.642;2023-04-03T01:33:32;1.52;;;1.00;;
64063;SDS011;50314;50.618;10.642;2023-04-03T01:35:57;1.15;;;1.05;;
64063;SDS011;50314;50.618;10.642;2023-04-03T01:38:23;1.33;;;1.00;;
64063;SDS011;50314;50.618;10.642;2023-04-03T01:40:48;1.27;;;1.13;;
64063;SDS011;50314;50.618;10.642;2023-04-03T01:43:14;1.23;;;0.98;;
64063;SDS011;50314;50.618;10.642;2023-04-03T01:45:40;1.00;;;0.90;;
64063;SDS011;50314;50.618;10.642;2023-04-03T01:48:05;1.45;;;0.90;;
64063;SDS011;50314;50.618;10.642;2023-04-03T01:50:31;1.23;;;0.90;;
64063;SDS011;50314;50.618;10.642;2023-04-03T01:52:56;1.20;;;0.90;;
64063;SDS011;50314;50.618;10.642;2023-04-03T01:55:22;1.17;;;0.80;;
64063;SDS011;50314;50.618;10.642;2023-04-03T01:57:48;1.35;;;0.90;;
64063;SDS011;50314;50.618;10.642;2023-04-03T02:00:13;1.00;;;0.90;;
64063;SDS011;50314;50.618;10.642;2023-04-03T02:02:39;0.73;;;0.70;;
64063;SDS011;50314;50.618;10.642;2023-04-03T02:05:05;1.67;;;0.80;;
64063;SDS011;50314;50.618;10.642;2023-04-03T02:07:31;1.35;;;0.85;;
64063;SDS011;50314;50.618;10.642;2023-04-03T02:09:56;1.27;;;0.90;;
64063;SDS011;50314;50.618;10.642;2023-04-03T02:12:21;1.55;;;1.17;;
64063;SDS011;50314;50.618;10.642;2023-04-03T02:14:47;1.73;;;0.90;;
64063;SDS011;50314;50.618;10.642;2023-04-03T02:17:12;1.08;;;0.98;;
64063;SDS011;50314;50.618;10.642;2023-04-03T02:19:38;0.98;;;0.82;;
64063;SDS011;50314;50.618;10.642;2023-04-03T02:22:03;0.90;;;0.80;;
64063;SDS011;50314;50.618;10.642;2023-04-03T02:24:29;0.90;;;0.90;;
64063;SDS011;50314;50.618;10.642;2023-04-03T02:26:55;1.17;;;0.75;;
64063;SDS011;50314;50.618;10.642;2023-04-03T02:29:21;1.52;;;0.88;;
64063;SDS011;50314;50.618;10.642;2023-04-03T02:31:46;0.75;;;0.75;;
64063;SDS011;50314;50.618;10.642;2023-04-03T02:34:12;1.35;;;1.00;;
64063;SDS011;50314;50.618;10.642;2023-04-03T02:36:37;0.95;;;0.88;;
64063;SDS011;50314;50.618;10.642;2023-04-03T02:39:03;1.73;;;0.85;;
64063;SDS011;50314;50.618;10.642;2023-04-03T02:41:29;0.98;;;0.80;;
64063;SDS011;50314;50.618;10.642;2023-04-03T02:44:00;1.20;;;1.10;;
64063;SDS011;50314;50.618;10.642;2023-04-03T02:46:29;0.80;;;0.80;;
64063;SDS011;50314;50.618;10.642;2023-04-03T02:48:55;0.80;;;0.65;;
64063;SDS011;50314;50.618;10.642;2023-04-03T02:51:21;0.85;;;0.75;;
64063;SDS011;50314;50.618;10.642;2023-04-03T02:53:48;0.98;;;0.82;;
64063;SDS011;50314;50.618;10.642;2023-04-03T02:56:14;1.40;;;0.85;;
64063;SDS011;50314;50.618;10.642;2023-04-03T02:58:39;0.75;;;0.70;;
64063;SDS011;50314;50.618;10.642;2023-04-03T03:01:05;0.70;;;0.70;;
64063;SDS011;50314;50.618;10.642;2023-04-03T03:03:30;0.70;;;0.70;;
64063;SDS011;50314;50.618;10.642;2023-04-03T03:08:32;1.75;;;0.90;;
64063;SDS011;50314;50.618;10.642;2023-04-03T03:10:58;0.85;;;0.70;;
64063;SDS011;50314;50.618;10.642;2023-04-03T03:13:23;1.50;;;0.90;;
64063;SDS011;50314;50.618;10.642;2023-04-03T03:15:49;0.95;;;0.80;;
64063;SDS011;50314;50.618;10.642;2023-04-03T03:18:15;0.68;;;0.60;;
64063;SDS011;50314;50.618;10.642;2023-04-03T03:20:40;0.85;;;0.85;;
64063;SDS011;50314;50.618;10.642;2023-04-03T03:23:06;1.13;;;0.70;;
64063;SDS011;50314;50.618;10.642;2023-04-03T03:25:31;1.27;;;0.80;;
64063;SDS011;50314;50.618;10.642;2023-04-03T03:27:56;1.13;;;0.90;;
64063;SDS011;50314;50.618;10.642;2023-04-03T03:30:22;0.63;;;0.55;;
64063;SDS011;50314;50.618;10.642;2023-04-03T03:32:47;0.98;;;0.60;;
64063;SDS011;50314;50.618;10.642;2023-04-03T03:35:13;1.45;;;0.73;;
64063;SDS011;50314;50.618;10.642;2023-04-03T03:37:38;1.48;;;0.80;;
64063;SDS011;50314;50.618;10.642;2023-04-03T03:40:04;3.08;;;0.90;;
64063;SDS011;50314;50.618;10.642;2023-04-03T03:42:30;1.00;;;0.75;;
64063;SDS011;50314;50.618;10.642;2023-04-03T03:44:56;1.27;;;1.05;;
64063;SDS011;50314;50.618;10.642;2023-04-03T03:47:21;1.02;;;0.68;;
64063;SDS011;50314;50.618;10.642;2023-04-03T03:49:46;0.88;;;0.80;;
64063;SDS011;50314;50.618;10.642;2023-04-03T03:52:12;0.80;;;0.80;;
64063;SDS011;50314;50.618;10.642;2023-04-03T03:54:38;1.00;;;0.88;;
64063;SDS011;50314;50.618;10.642;2023-04-03T03:57:03;0.57;;;0.50;;
64063;SDS011;50314;50.618;10.642;2023-04-03T03:59:30;0.80;;;0.73;;
64063;SDS011;50314;50.618;10.642;2023-04-03T04:01:55;1.33;;;0.75;;
64063;SDS011;50314;50.618;10.642;2023-04-03T04:04:21;0.90;;;0.70;;
64063;SDS011;50314;50.618;10.642;2023-04-03T04:06:46;1.20;;;0.82;;
64063;SDS011;50314;50.618;10.642;2023-04-03T04:09:12;1.05;;;0.80;;
64063;SDS011;50314;50.618;10.642;2023-04-03T04:11:37;0.68;;;0.60;;
64063;SDS011;50314;50.618;10.642;2023-04-03T04:14:04;1.05;;;0.60;;
64063;SDS011;50314;50.618;10.642;2023-04-03T04:16:30;0.60;;;0.60;;
64063;SDS011;50314;50.618;10.642;2023-04-03T04:18:56;2.03;;;0.70;;
64063;SDS011;50314;50.618;10.642;2023-04-03T04:21:21;0.80;;;0.60;;
64063;SDS011;50314;50.618;10.642;2023-04-03T04:23:47;1.05;;;0.93;;
64063;SDS011;50314;50.618;10.642;2023-04-03T04:26:12;0.82;;;0.75;;
64063;SDS011;50314;50.618;10.642;2023-04-03T04:28:38;0.77;;;0.77;;
64063;SDS011;50314;50.618;10.642;2023-04-03T04:31:03;1.13;;;0.80;;
64063;SDS011;50314;50.618;10.642;2023-04-03T04:33:28;1.42;;;0.90;;
64063;SDS011;50314;50.618;10.642;2023-04-03T04:35:54;1.00;;;0.90;;
64063;SDS011;50314;50.618;10.642;2023-04-03T04:38:20;0.68;;;0.68;;
64063;SDS011;50314;50.618;10.642;2023-04-03T04:40:46;0.73;;;0.73;;
64063;SDS011;50314;50.618;10.642;2023-04-03T04:43:12;0.70;;;0.60;;
64063;SDS011;50314;50.618;10.642;2023-04-03T04:45:39;1.15;;;0.70;;
64063;SDS011;50314;50.618;10.642;2023-04-03T04:48:05;0.93;;;0.70;;
64063;SDS011;50314;50.618;10.642;2023-04-03T04:50:31;0.82;;;0.73;;
64063;SDS011;50314;50.618;10.642;2023-04-03T04:52:57;0.50;;;0.50;;
64063;SDS011;50314;50.618;10.642;2023-04-03T04:55:22;1.15;;;0.80;;
64063;SDS011;50314;50.618;10.642;2023-04-03T04:57:47;0.70;;;0.70;;
64063;SDS011;50314;50.618;10.642;2023-04-03T05:00:13;0.50;;;0.50;;
64063;SDS011;50314;50.618;10.642;2023-04-03T05:02:39;0.70;;;0.65;;
64063;SDS011;50314;50.618;10.642;2023-04-03T05:05:05;1.30;;;0.75;;
64063;SDS011;50314;50.618;10.642;2023-04-03T05:07:30;1.50;;;0.85;;
64063;SDS011;50314;50.618;10.642;2023-04-03T05:09:56;0.82;;;0.80;;
64063;SDS011;50314;50.618;10.642;2023-04-03T05:12:21;0.82;;;0.68;;
64063;SDS011;50314;50.618;10.642;2023-04-03T05:14:47;0.70;;;0.70;;
64063;SDS011;50314;50.618;10.642;2023-04-03T05:17:12;0.50;;;0.50;;
64063;SDS011;50314;50.618;10.642;2023-04-03T05:19:38;0.63;;;0.63;;
64063;SDS011;50314;50.618;10.642;2023-04-03T05:22:03;1.25;;;0.65;;
64063;SDS011;50314;50.618;10.642;2023-04-03T05:24:29;1.17;;;0.70;;
64063;SDS011;50314;50.618;10.642;2023-04-03T05:26:54;0.77;;;0.73;;
64063;SDS011;50314;50.618;10.642;2023-04-03T05:29:20;1.08;;;0.70;;
64063;SDS011;50314;50.618;10.642;2023-04-03T05:31:48;1.00;;;0.75;;
64063;SDS011;50314;50.618;10.642;2023-04-03T05:34:15;0.93;;;0.63;;
64063;SDS011;50314;50.618;10.642;2023-04-03T05:36:41;1.73;;;1.00;;
64063;SDS011;50314;50.618;10.642;2023-04-03T05:39:07;1.75;;;0.75;;
64063;SDS011;50314;50.618;10.642;2023-04-03T05:41:32;1.65;;;0.82;;
64063;SDS011;50314;50.618;10.642;2023-04-03T05:43:58;1.08;;;0.63;;
64063;SDS011;50314;50.618;10.642;2023-04-03T05:46:23;1.05;;;0.80;;
64063;SDS011;50314;50.618;10.642;2023-04-03T05:48:49;1.42;;;0.80;;
64063;SDS011;50314;50.618;10.642;2023-04-03T05:51:16;1.85;;;0.85;;
64063;SDS011;50314;50.618;10.642;2023-04-03T05:53:44;0.90;;;0.63;;
64063;SDS011;50314;50.618;10.642;2023-04-03T05:56:11;1.48;;;0.80;;
64063;SDS011;50314;50.618;10.642;2023-04-03T05:58:37;1.27;;;0.80;;
64063;SDS011;50314;50.618;10.642;2023-04-03T06:01:03;1.13;;;0.77;;
64063;SDS011;50314;50.618;10.642;2023-04-03T06:03:29;0.70;;;0.70;;
64063;SDS011;50314;50.618;10.642;2023-04-03T06:05:54;0.95;;;0.70;;
64063;SDS011;50314;50.618;10.642;2023-04-03T06:08:19;0.80;;;0.80;;
64063;SDS011;50314;50.618;10.642;2023-04-03T06:10:45;1.27;;;0.73;;
64063;SDS011;50314;50.618;10.642;2023-04-03T06:13:11;0.70;;;0.70;;
64063;SDS011;50314;50.618;10.642;2023-04-03T06:15:37;1.00;;;0.90;;
64063;SDS011;50314;50.618;10.642;2023-04-03T06:18:04;0.95;;;0.88;;
64063;SDS011;50314;50.618;10.642;2023-04-03T06:20:30;1.98;;;1.08;;
64063;SDS011;50314;50.618;10.642;2023-04-03T06:22:56;3.08;;;1.05;;
64063;SDS011;50314;50.618;10.642;2023-04-03T06:25:21;1.25;;;0.80;;
64063;SDS011;50314;50.618;10.642;2023-04-03T06:27:47;1.92;;;0.80;;
64063;SDS011;50314;50.618;10.642;2023-04-03T06:30:12;2.20;;;0.80;;
64063;SDS011;50314;50.618;10.642;2023-04-03T06:32:38;2.45;;;0.90;;
64063;SDS011;50314;50.618;10.642;2023-04-03T06:35:04;3.83;;;0.93;;
64063;SDS011;50314;50.618;10.642;2023-04-03T06:37:30;2.15;;;1.08;;
64063;SDS011;50314;50.618;10.642;2023-04-03T06:39:57;2.10;;;1.00;;
64063;SDS011;50314;50.618;10.642;2023-04-03T06:42:23;2.08;;;0.90;;
64063;SDS011;50314;50.618;10.642;2023-04-03T06:44:49;1.63;;;0.82;;
64063;SDS011;50314;50.618;10.642;2023-04-03T06:47:15;1.65;;;0.90;;
64063;SDS011;50314;50.618;10.642;2023-04-03T06:49:44;1.08;;;0.90;;
64063;SDS011;50314;50.618;10.642;2023-04-03T06:52:09;2.97;;;0.80;;
64063;SDS011;50314;50.618;10.642;2023-04-03T06:57:02;1.15;;;0.70;;
64063;SDS011;50314;50.618;10.642;2023-04-03T06:59:28;1.08;;;0.68;;
64063;SDS011;50314;50.618;10.642;2023-04-03T07:01:53;1.80;;;0.90;;
64063;SDS011;50314;50.618;10.642;2023-04-03T07:04:19;3.70;;;0.80;;
64063;SDS011;50314;50.618;10.642;2023-04-03T07:06:47;2.33;;;1.20;;
64063;SDS011;50314;50.618;10.642;2023-04-03T07:09:13;1.63;;;0.90;;
64063;SDS011;50314;50.618;10.642;2023-04-03T07:11:39;1.50;;;0.98;;
64063;SDS011;50314;50.618;10.642;2023-04-03T07:14:05;1.88;;;1.00;;
64063;SDS011;50314;50.618;10.642;2023-04-03T07:16:32;1.45;;;0.70;;
64063;SDS011;50314;50.618;10.642;2023-04-03T07:18:58;2.10;;;0.90;;
64063;SDS011;50314;50.618;10.642;2023-04-03T07:21:24;1.38;;;0.80;;
64063;SDS011;50314;50.618;10.642;2023-04-03T07:23:49;1.55;;;0.80;;
64063;SDS011;50314;50.618;10.642;2023-04-03T07:26:15;1.17;;;0.80;;
64063;SDS011;50314;50.618;10.642;2023-04-03T07:28:40;3.15;;;1.02;;
64063;SDS011;50314;50.618;10.642;2023-04-03T07:31:08;1.75;;;0.80;;
64063;SDS011;50314;50.618;10.642;2023-04-03T07:33:38;2.00;;;0.90;;
64063;SDS011;50314;50.618;10.642;2023-04-03T07:36:06;2.15;;;1.27;;
64063;SDS011;50314;50.618;10.642;2023-04-03T07:38:32;3.45;;;1.13;;
64063;SDS011;50314;50.618;10.642;2023-04-03T07:40:58;2.72;;;1.30;;
64063;SDS011;50314;50.618;10.642;2023-04-03T07:43:24;2.85;;;1.23;;
64063;SDS011;50314;50.618;10.642;2023-04-03T07:45:50;3.92;;;1.75;;
64063;SDS011;50314;50.618;10.642;2023-04-03T07:48:20;3.05;;;1.45;;
64063;SDS011;50314;50.618;10.642;2023-04-03T07:50:47;3.13;;;1.30;;
64063;SDS011;50314;50.618;10.642;2023-04-03T07:53:12;2.38;;;1.38;;
64063;SDS011;50314;50.618;10.642;2023-04-03T07:55:39;2.08;;;1.27;;
64063;SDS011;50314;50.618;10.642;2023-04-03T07:58:08;3.88;;;1.38;;
64063;SDS011;50314;50.618;10.642;2023-04-03T08:00:38;2.30;;;1.30;;
64063;SDS011;50314;50.618;10.642;2023-04-03T08:03:04;3.33;;;1.50;;
64063;SDS011;50314;50.618;10.642;2023-04-03T08:05:30;3.50;;;1.30;;
64063;SDS011;50314;50.618;10.642;2023-04-03T08:07:55;3.13;;;1.40;;
64063;SDS011;50314;50.618;10.642;2023-04-03T08:10:21;3.75;;;1.17;;
64063;SDS011;50314;50.618;10.642;2023-04-03T08:12:46;2.58;;;1.60;;
64063;SDS011;50314;50.618;10.642;2023-04-03T08:15:12;2.22;;;1.40;;
64063;SDS011;50314;50.618;10.642;2023-04-03T08:17:38;2.63;;;1.25;;
64063;SDS011;50314;50.618;10.642;2023-04-03T08:20:05;2.72;;;1.30;;
64063;SDS011;50314;50.618;10.642;2023-04-03T08:22:32;2.95;;;1.30;;
64063;SDS011;50314;50.618;10.642;2023-04-03T08:24:58;1.92;;;1.15;;
64063;SDS011;50314;50.618;10.642;2023-04-03T08:27:23;2.60;;;1.25;;
64063;SDS011;50314;50.618;10.642;2023-04-03T08:29:49;2.95;;;1.38;;
64063;SDS011;50314;50.618;10.642;2023-04-03T08:32:14;3.13;;;1.27;;
64063;SDS011;50314;50.618;10.642;2023-04-03T08:34:40;2.67;;;0.90;;
64063;SDS011;50314;50.618;10.642;2023-04-03T08:37:06;3.00;;;1.20;;
64063;SDS011;50314;50.618;10.642;2023-04-03T08:39:31;2.63;;;0.90;;
64063;SDS011;50314;50.618;10.642;2023-04-03T08:41:57;1.40;;;0.95;;
64063;SDS011;50314;50.618;10.642;2023-04-03T08:50:12;2.10;;;1.20;;
64063;SDS011;50314;50.618;10.642;2023-04-03T08:52:56;2.13;;;1.00;;
64063;SDS011;50314;50.618;10.642;2023-04-03T08:56:07;2.03;;;1.02;;
64063;SDS011;50314;50.618;10.642;2023-04-03T08:58:15;1.50;;;1.00;;
64063;SDS011;50314;50.618;10.642;2023-04-03T09:00:44;1.40;;;1.08;;
64063;SDS011;50314;50.618;10.642;2023-04-03T09:03:14;2.28;;;1.10;;
64063;SDS011;50314;50.618;10.642;2023-04-03T09:05:50;2.03;;;1.10;;
64063;SDS011;50314;50.618;10.642;2023-04-03T09:08:56;2.15;;;1.00;;
64063;SDS011;50314;50.618;10.642;2023-04-03T09:17:12;1.90;;;1.30;;
64063;SDS011;50314;50.618;10.642;2023-04-03T09:20:03;2.08;;;1.10;;
64063;SDS011;50314;50.618;10.642;2023-04-03T09:22:45;1.10;;;0.80;;
64063;SDS011;50314;50.618;10.642;2023-04-03T09:25:18;2.58;;;1.20;;
64063;SDS011;50314;50.618;10.642;2023-04-03T09:27:45;1.95;;;1.23;;
64063;SDS011;50314;50.618;10.642;2023-04-03T09:30:18;1.98;;;1.17;;
64063;SDS011;50314;50.618;10.642;2023-04-03T09:32:50;2.92;;;1.30;;
64063;SDS011;50314;50.618;10.642;2023-04-03T09:35:19;3.50;;;1.55;;
64063;SDS011;50314;50.618;10.642;2023-04-03T09:37:52;2.92;;;1.60;;
64063;SDS011;50314;50.618;10.642;2023-04-03T09:42:51;2.20;;;1.13;;
64063;SDS011;50314;50.618;10.642;2023-04-03T09:45:25;1.63;;;1.10;;
64063;SDS011;50314;50.618;10.642;2023-04-03T09:50:32;2.65;;;1.05;;
64063;SDS011;50314;50.618;10.642;2023-04-03T09:53:02;1.80;;;1.20;;
64063;SDS011;50314;50.618;10.642;2023-04-03T09:55:31;1.73;;;1.00;;
64063;SDS011;50314;50.618;10.642;2023-04-03T09:57:58;1.75;;;1.15;;
64063;SDS011;50314;50.618;10.642;2023-04-03T10:00:38;1.63;;;1.08;;
64063;SDS011;50314;50.618;10.642;2023-04-03T10:03:05;1.98;;;1.10;;
64063;SDS011;50314;50.618;10.642;2023-04-03T10:05:49;2.15;;;1.35;;
64063;SDS011;50314;50.618;10.642;2023-04-03T10:10:42;2.47;;;1.20;;
64063;SDS011;50314;50.618;10.642;2023-04-03T10:13:14;2.40;;;1.10;;
64063;SDS011;50314;50.618;10.642;2023-04-03T10:15:48;2.15;;;1.20;;
64063;SDS011;50314;50.618;10.642;2023-04-03T10:21:13;2.03;;;1.20;;
64063;SDS011;50314;50.618;10.642;2023-04-03T10:24:06;2.30;;;1.08;;
64063;SDS011;50314;50.618;10.642;2023-04-03T10:34:48;2.05;;;1.05;;
64063;SDS011;50314;50.618;10.642;2023-04-03T10:40:35;3.28;;;1.30;;
64063;SDS011;50314;50.618;10.642;2023-04-03T10:45:49;1.52;;;1.02;;
64063;SDS011;50314;50.618;10.642;2023-04-03T10:51:11;1.23;;;0.85;;
64063;SDS011;50314;50.618;10.642;2023-04-03T10:56:56;1.60;;;0.90;;
64063;SDS011;50314;50.618;10.642;2023-04-03T11:02:39;2.28;;;1.00;;
64063;SDS011;50314;50.618;10.642;2023-04-03T11:05:08;1.90;;;0.90;;
64063;SDS011;50314;50.618;10.642;2023-04-03T11:07:45;2.38;;;1.15;;
64063;SDS011;50314;50.618;10.642;2023-04-03T11:10:18;1.58;;;0.80;;
64063;SDS011;50314;50.618;10.642;2023-04-03T11:13:01;1.40;;;0.98;;
64063;SDS011;50314;50.618;10.642;2023-04-03T11:15:43;1.40;;;1.00;;
64063;SDS011;50314;50.618;10.642;2023-04-03T11:18:31;1.48;;;0.98;;
64063;SDS011;50314;50.618;10.642;2023-04-03T11:21:02;0.93;;;0.80;;
64063;SDS011;50314;50.618;10.642;2023-04-03T11:23:36;1.30;;;1.00;;
64063;SDS011;50314;50.618;10.642;2023-04-03T11:26:09;1.33;;;0.88;;
64063;SDS011;50314;50.618;10.642;2023-04-03T11:28:40;1.85;;;0.90;;
64063;SDS011;50314;50.618;10.642;2023-04-03T11:36:35;1.05;;;0.90;;
64063;SDS011;50314;50.618;10.642;2023-04-03T11:39:25;1.63;;;0.88;;
64063;SDS011;50314;50.618;10.642;2023-04-03T11:41:51;1.10;;;0.80;;
64063;SDS011;50314;50.618;10.642;2023-04-03T11:44:34;1.00;;;0.90;;
64063;SDS011;50314;50.618;10.642;2023-04-03T11:47:07;1.98;;;0.82;;
64063;SDS011;50314;50.618;10.642;2023-04-03T11:50:16;2.88;;;0.90;;
64063;SDS011;50314;50.618;10.642;2023-04-03T12:05:50;1.45;;;0.75;;
64063;SDS011;50314;50.618;10.642;2023-04-03T12:08:26;1.92;;;0.85;;
64063;SDS011;50314;50.618;10.642;2023-04-03T12:13:40;0.90;;;0.80;;
64063;SDS011;50314;50.618;10.642;2023-04-03T12:16:21;1.83;;;1.10;;
64063;SDS011;50314;50.618;10.642;2023-04-03T12:18:57;1.38;;;0.82;;
64063;SDS011;50314;50.618;10.642;2023-04-03T12:24:23;1.55;;;0.70;;
64063;SDS011;50314;50.618;10.642;2023-04-03T12:48:12;1.05;;;0.60;;
64063;SDS011;50314;50.618;10.642;2023-04-03T12:50:41;1.00;;;0.90;;
64063;SDS011;50314;50.618;10.642;2023-04-03T12:55:56;1.00;;;0.70;;
64063;SDS011;50314;50.618;10.642;2023-04-03T12:58:23;1.40;;;0.98;;
64063;SDS011;50314;50.618;10.642;2023-04-03T13:01:04;1.85;;;0.90;;
64063;SDS011;50314;50.618;10.642;2023-04-03T13:03:37;0.80;;;0.80;;
64063;SDS011;50314;50.618;10.642;2023-04-03T13:06:06;2.00;;;0.93;;
64063;SDS011;50314;50.618;10.642;2023-04-03T13:08:32;0.88;;;0.57;;
64063;SDS011;50314;50.618;10.642;2023-04-03T13:10:59;1.15;;;0.70;;
64063;SDS011;50314;50.618;10.642;2023-04-03T13:13:28;0.98;;;0.80;;
64063;SDS011;50314;50.618;10.642;2023-04-03T13:15:54;1.23;;;0.70;;
64063;SDS011;50314;50.618;10.642;2023-04-03T13:21:17;0.70;;;0.63;;
64063;SDS011;50314;50.618;10.642;2023-04-03T13:23:46;0.73;;;0.73;;
64063;SDS011;50314;50.618;10.642;2023-04-03T13:26:18;1.13;;;0.80;;
64063;SDS011;50314;50.618;10.642;2023-04-03T13:28:46;0.70;;;0.70;;
64063;SDS011;50314;50.618;10.642;2023-04-03T13:33:38;0.77;;;0.73;;
64063;SDS011;50314;50.618;10.642;2023-04-03T13:36:31;1.20;;;0.93;;
64063;SDS011;50314;50.618;10.642;2023-04-03T13:39:21;2.55;;;0.85;;
64063;SDS011;50314;50.618;10.642;2023-04-03T13:41:50;0.70;;;0.70;;
64063;SDS011;50314;50.618;10.642;2023-04-03T13:46:45;0.80;;;0.75;;
64063;SDS011;50314;50.618;10.642;2023-04-03T13:49:21;0.90;;;0.70;;
64063;SDS011;50314;50.618;10.642;2023-04-03T13:51:53;0.68;;;0.60;;
64063;SDS011;50314;50.618;10.642;2023-04-03T13:54:20;1.10;;;0.70;;
64063;SDS011;50314;50.618;10.642;2023-04-03T13:56:54;0.50;;;0.50;;
64063;SDS011;50314;50.618;10.642;2023-04-03T13:59:27;2.40;;;0.80;;
64063;SDS011;50314;50.618;10.642;2023-04-03T14:04:46;1.23;;;0.70;;
64063;SDS011;50314;50.618;10.642;2023-04-03T14:07:15;1.13;;;0.70;;
64063;SDS011;50314;50.618;10.642;2023-04-03T14:09:41;0.80;;;0.80;;
64063;SDS011;50314;50.618;10.642;2023-04-03T14:12:08;0.82;;;0.60;;
64063;SDS011;50314;50.618;10.642;2023-04-03T14:14:40;0.90;;;0.80;;
64063;SDS011;50314;50.618;10.642;2023-04-03T14:17:13;1.42;;;0.70;;
64063;SDS011;50314;50.618;10.642;2023-04-03T14:19:44;1.65;;;0.80;;
64063;SDS011;50314;50.618;10.642;2023-04-03T14:22:18;1.25;;;0.95;;
64063;SDS011;50314;50.618;10.642;2023-04-03T14:24:47;0.88;;;0.88;;
64063;SDS011;50314;50.618;10.642;2023-04-03T14:29:42;1.15;;;0.90;;
64063;SDS011;50314;50.618;10.642;2023-04-03T14:32:10;1.27;;;0.70;;
64063;SDS011;50314;50.618;10.642;2023-04-03T14:34:37;1.52;;;0.90;;
64063;SDS011;50314;50.618;10.642;2023-04-03T14:37:04;1.15;;;0.90;;
64063;SDS011;50314;50.618;10.642;2023-04-03T14:39:30;1.42;;;0.85;;
64063;SDS011;50314;50.618;10.642;2023-04-03T14:41:55;0.80;;;0.70;;
64063;SDS011;50314;50.618;10.642;2023-04-03T14:44:21;0.85;;;0.70;;
64063;SDS011;50314;50.618;10.642;2023-04-03T14:46:48;1.48;;;0.75;;
64063;SDS011;50314;50.618;10.642;2023-04-03T14:49:14;1.08;;;0.70;;
64063;SDS011;50314;50.618;10.642;2023-04-03T14:51:47;1.00;;;0.70;;
64063;SDS011;50314;50.618;10.642;2023-04-03T14:54:13;0.75;;;0.73;;
64063;SDS011;50314;50.618;10.642;2023-04-03T14:56:41;1.20;;;0.98;;
64063;SDS011;50314;50.618;10.642;2023-04-03T14:59:09;1.05;;;0.95;;
64063;SDS011;50314;50.618;10.642;2023-04-03T15:01:36;1.73;;;0.80;;
64063;SDS011;50314;50.618;10.642;2023-04-03T15:04:05;1.92;;;0.93;;
64063;SDS011;50314;50.618;10.642;2023-04-03T15:06:40;0.85;;;0.77;;
64063;SDS011;50314;50.618;10.642;2023-04-03T15:09:25;0.70;;;0.70;;
64063;SDS011;50314;50.618;10.642;2023-04-03T15:11:52;1.25;;;1.10;;
64063;SDS011;50314;50.618;10.642;2023-04-03T15:14:19;0.95;;;0.65;;
64063;SDS011;50314;50.618;10.642;2023-04-03T15:16:45;1.15;;;0.88;;
64063;SDS011;50314;50.618;10.642;2023-04-03T15:19:11;1.70;;;0.70;;
64063;SDS011;50314;50.618;10.642;2023-04-03T15:21:37;2.33;;;1.10;;
64063;SDS011;50314;50.618;10.642;2023-04-03T15:24:03;1.58;;;1.00;;
64063;SDS011;50314;50.618;10.642;2023-04-03T15:26:28;1.58;;;0.70;;
64063;SDS011;50314;50.618;10.642;2023-04-03T15:28:54;1.58;;;0.80;;
64063;SDS011;50314;50.618;10.642;2023-04-03T15:31:20;0.68;;;0.68;;
64063;SDS011;50314;50.618;10.642;2023-04-03T15:33:45;2.00;;;1.08;;
64063;SDS011;50314;50.618;10.642;2023-04-03T15:36:11;0.80;;;0.60;;
64063;SDS011;50314;50.618;10.642;2023-04-03T15:38:36;1.45;;;0.80;;
64063;SDS011;50314;50.618;10.642;2023-04-03T15:41:03;1.30;;;0.60;;
64063;SDS011;50314;50.618;10.642;2023-04-03T15:43:28;1.25;;;0.80;;
64063;SDS011;50314;50.618;10.642;2023-04-03T15:45:58;2.15;;;0.88;;
64063;SDS011;50314;50.618;10.642;2023-04-03T15:48:25;0.88;;;0.55;;
64063;SDS011;50314;50.618;10.642;2023-04-03T15:50:51;1.48;;;0.80;;
64063;SDS011;50314;50.618;10.642;2023-04-03T15:53:16;1.35;;;0.90;;
64063;SDS011;50314;50.618;10.642;2023-04-03T15:55:42;1.50;;;0.80;;
64063;SDS011;50314;50.618;10.642;2023-04-03T15:58:07;1.50;;;0.75;;
64063;SDS011;50314;50.618;10.642;2023-04-03T16:00:33;0.77;;;0.70;;
64063;SDS011;50314;50.618;10.642;2023-04-03T16:03:04;1.17;;;0.80;;
64063;SDS011;50314;50.618;10.642;2023-04-03T16:05:33;0.95;;;0.77;;
64063;SDS011;50314;50.618;10.642;2023-04-03T16:08:00;0.70;;;0.70;;
64063;SDS011;50314;50.618;10.642;2023-04-03T16:10:26;0.93;;;0.65;;
64063;SDS011;50314;50.618;10.642;2023-04-03T16:12:52;0.80;;;0.60;;
64063;SDS011;50314;50.618;10.642;2023-04-03T16:15:18;0.93;;;0.70;;
64063;SDS011;50314;50.618;10.642;2023-04-03T16:17:43;1.20;;;0.65;;
64063;SDS011;50314;50.618;10.642;2023-04-03T16:20:10;2.30;;;0.90;;
64063;SDS011;50314;50.618;10.642;2023-04-03T16:22:38;0.80;;;0.65;;
64063;SDS011;50314;50.618;10.642;2023-04-03T16:25:05;0.98;;;0.70;;
64063;SDS011;50314;50.618;10.642;2023-04-03T16:27:31;0.88;;;0.60;;
64063;SDS011;50314;50.618;10.642;2023-04-03T16:29:57;1.40;;;0.80;;
64063;SDS011;50314;50.618;10.642;2023-04-03T16:32:23;1.38;;;0.73;;
64063;SDS011;50314;50.618;10.642;2023-04-03T16:34:51;0.70;;;0.70;;
64063;SDS011;50314;50.618;10.642;2023-04-03T16:37:17;1.10;;;0.70;;
64063;SDS011;50314;50.618;10.642;2023-04-03T16:39:42;1.23;;;0.80;;
64063;SDS011;50314;50.618;10.642;2023-04-03T16:42:08;0.70;;;0.57;;